createdAt,value
2019-04-04T00:00:08.744Z,5.00
2019-04-04T00:02:37.649Z,4.70
2019-04-04T00:05:07.020Z,4.70
2019-04-04T00:07:35.816Z,4.65
2019-04-04T00:10:06.644Z,4.50
2019-04-04T00:12:36.991Z,4.85
2019-04-04T00:15:06.733Z,4.92
2019-04-04T00:17:35.530Z,4.83
2019-04-04T00:20:06.861Z,4.60
2019-04-04T00:22:43.167Z,4.45
2019-04-04T00:25:12.250Z,4.87
2019-04-04T00:27:43.678Z,4.97
2019-04-04T00:30:11.729Z,4.80
2019-04-04T00:32:40.529Z,4.60
2019-04-04T00:35:09.957Z,4.97
2019-04-04T00:37:40.983Z,4.55
2019-04-04T00:40:11.722Z,4.80
2019-04-04T00:42:40.274Z,4.78
2019-04-04T00:45:09.109Z,4.65
2019-04-04T00:47:37.909Z,4.83
2019-04-04T00:50:07.736Z,4.60
2019-04-04T00:52:37.180Z,4.95
2019-04-04T00:55:07.210Z,5.00
2019-04-04T00:57:36.100Z,4.97
2019-04-04T01:00:07.265Z,4.97
2019-04-04T01:02:36.065Z,5.03
2019-04-04T01:05:07.101Z,42.90
2019-04-04T01:07:36.442Z,1999.90
2019-04-04T01:10:07.624Z,1999.90
2019-04-04T01:12:36.442Z,1999.90
2019-04-04T01:15:06.934Z,4.07
2019-04-04T01:17:35.778Z,4.20
2019-04-04T01:20:07.274Z,3.83
2019-04-04T01:22:36.065Z,3.65
2019-04-04T01:25:06.901Z,3.60
2019-04-04T01:27:36.919Z,3.40
2019-04-04T01:30:07.874Z,3.67
2019-04-04T01:32:36.668Z,3.65
2019-04-04T01:35:09.449Z,3.75
2019-04-04T01:37:38.246Z,3.55
2019-04-04T01:40:07.077Z,3.87
2019-04-04T01:42:37.919Z,3.75
2019-04-04T01:45:12.733Z,3.77
2019-04-04T01:47:39.717Z,3.67
2019-04-04T01:50:10.028Z,3.92
2019-04-04T01:52:38.853Z,4.10
2019-04-04T01:55:07.578Z,4.20
2019-04-04T01:57:38.537Z,3.75
2019-04-04T02:00:09.283Z,4.28
2019-04-04T02:02:38.041Z,4.20
2019-04-04T02:05:08.485Z,4.25
2019-04-04T02:07:37.309Z,4.25
2019-04-04T02:10:07.103Z,4.45
2019-04-04T02:13:46.550Z,4.30
2019-04-04T02:16:17.013Z,4.43
2019-04-04T02:18:45.749Z,4.10
2019-04-04T02:21:14.573Z,4.22
2019-04-04T02:23:43.353Z,4.45
2019-04-04T02:26:12.083Z,4.20
2019-04-04T02:28:40.841Z,4.58
2019-04-04T02:31:10.046Z,4.30
2019-04-04T02:33:38.832Z,4.40
2019-04-04T02:36:07.538Z,4.30
2019-04-04T02:38:36.306Z,5.08
2019-04-04T02:41:05.155Z,5.10
2019-04-04T02:43:33.901Z,5.00
2019-04-04T02:46:02.702Z,4.42
2019-04-04T02:48:31.461Z,4.65
2019-04-04T02:51:00.204Z,5.37
2019-04-04T02:53:29.026Z,5.22
2019-04-04T02:56:02.265Z,4.72
2019-04-04T02:58:28.249Z,5.45
2019-04-04T03:01:00.344Z,5.40
2019-04-04T03:03:27.395Z,5.85
2019-04-04T03:05:56.125Z,5.85
2019-04-04T03:08:24.887Z,5.97
2019-04-04T03:10:53.620Z,6.30
2019-04-04T03:13:22.424Z,6.03
2019-04-04T03:15:51.186Z,6.85
2019-04-04T03:18:19.927Z,8.05
2019-04-04T03:20:50.512Z,7.12
2019-04-04T03:23:19.053Z,7.65
2019-04-04T03:25:48.211Z,7.67
2019-04-04T03:28:17.128Z,7.75
2019-04-04T03:30:52.585Z,8.33
2019-04-04T03:33:16.334Z,8.00
2019-04-04T03:35:45.089Z,8.38
2019-04-04T03:38:14.198Z,7.80
2019-04-04T03:40:43.017Z,8.20
2019-04-04T03:43:15.882Z,7.78
2019-04-04T03:45:42.274Z,8.70
2019-04-04T03:48:11.046Z,8.80
2019-04-04T03:50:39.945Z,8.35
2019-04-04T03:53:08.689Z,8.75
2019-04-04T03:55:37.447Z,8.75
2019-04-04T03:58:06.278Z,8.90
2019-04-04T04:00:39.246Z,9.35
2019-04-04T04:03:05.528Z,8.28
2019-04-04T04:05:35.890Z,9.10
2019-04-04T04:08:04.750Z,8.68
2019-04-04T04:10:34.009Z,9.35
2019-04-04T04:13:02.857Z,8.05
2019-04-04T04:15:31.657Z,8.95
2019-04-04T04:18:00.429Z,8.30
2019-04-04T04:20:29.226Z,10.05
2019-04-04T04:22:58.449Z,9.03
2019-04-04T04:25:27.237Z,9.05
2019-04-04T04:27:55.998Z,9.93
2019-04-04T04:30:24.795Z,9.65
2019-04-04T04:32:57.172Z,10.35
2019-04-04T04:35:24.129Z,10.85
2019-04-04T04:37:53.893Z,11.05
2019-04-04T04:40:22.805Z,13.18
2019-04-04T04:42:51.568Z,13.77
2019-04-04T04:45:20.408Z,14.38
2019-04-04T04:47:49.173Z,14.13
2019-04-04T04:50:17.906Z,11.73
2019-04-04T04:52:49.763Z,11.90
2019-04-04T04:55:18.185Z,13.55
2019-04-04T04:57:46.950Z,14.10
2019-04-04T05:00:16.130Z,14.20
2019-04-04T05:02:45.550Z,12.85
2019-04-04T05:05:14.277Z,13.50
2019-04-04T05:07:43.121Z,14.80
2019-04-04T05:10:12.927Z,15.95
2019-04-04T05:12:42.596Z,19.87
2019-04-04T05:15:11.428Z,16.23
2019-04-04T05:17:42.055Z,18.10
2019-04-04T05:20:10.681Z,16.15
2019-04-04T05:22:40.014Z,17.27
2019-04-04T05:25:09.535Z,16.42
2019-04-04T05:27:38.273Z,18.30
2019-04-04T05:30:08.496Z,16.62
2019-04-04T05:32:37.654Z,14.43
2019-04-04T05:35:07.180Z,13.95
2019-04-04T05:37:38.288Z,14.33
2019-04-04T05:40:08.900Z,14.00
2019-04-04T05:42:39.807Z,15.63
2019-04-04T05:45:09.564Z,15.23
2019-04-04T05:47:38.389Z,15.63
2019-04-04T05:50:11.120Z,14.97
2019-04-04T05:52:37.924Z,15.10
2019-04-04T05:55:09.971Z,15.35
2019-04-04T05:57:37.462Z,14.20
2019-04-04T06:00:08.393Z,13.62
2019-04-04T06:02:37.140Z,14.30
2019-04-04T06:05:06.993Z,14.73
2019-04-04T06:07:36.433Z,14.45
2019-04-04T06:10:06.984Z,15.30
2019-04-04T06:12:37.478Z,15.10
2019-04-04T06:15:07.014Z,13.18
2019-04-04T06:17:38.859Z,12.58
2019-04-04T06:20:08.160Z,13.32
2019-04-04T06:22:36.885Z,12.90
2019-04-04T06:25:07.059Z,12.00
2019-04-04T06:27:35.856Z,14.40
2019-04-04T06:30:06.212Z,12.70
2019-04-04T06:32:35.017Z,11.57
2019-04-04T06:35:04.177Z,12.45
2019-04-04T06:37:34.276Z,11.33
2019-04-04T06:40:03.866Z,12.63
2019-04-04T06:42:35.503Z,11.90
2019-04-04T06:45:03.025Z,12.93
2019-04-04T06:47:32.512Z,11.93
2019-04-04T06:50:01.337Z,10.38
2019-04-04T06:52:30.160Z,10.98
2019-04-04T06:54:58.901Z,10.48
2019-04-04T06:57:27.663Z,9.85
2019-04-04T06:59:56.473Z,11.68
2019-04-04T07:02:25.249Z,10.85
2019-04-04T07:04:53.976Z,10.68
2019-04-04T07:07:22.732Z,9.75
2019-04-04T07:09:51.461Z,10.53
2019-04-04T07:12:24.420Z,11.03
2019-04-04T07:14:50.691Z,9.25
2019-04-04T07:17:19.444Z,8.70
2019-04-04T07:19:48.171Z,10.35
2019-04-04T07:22:16.985Z,8.20
2019-04-04T07:24:45.714Z,9.68
2019-04-04T07:27:16.273Z,8.73
2019-04-04T07:29:44.919Z,9.95
2019-04-04T07:32:13.740Z,9.05
2019-04-04T07:34:45.070Z,9.50
2019-04-04T07:37:12.949Z,9.75
2019-04-04T07:39:41.684Z,8.98
2019-04-04T07:42:10.444Z,9.88
2019-04-04T07:44:39.168Z,9.30
2019-04-04T07:47:07.989Z,8.88
2019-04-04T07:49:36.721Z,8.73
2019-04-04T07:52:05.584Z,8.95
2019-04-04T07:54:38.093Z,9.53
2019-04-04T07:57:05.028Z,9.00
2019-04-04T07:59:33.773Z,9.00
2019-04-04T08:02:02.545Z,8.15
2019-04-04T08:04:31.280Z,8.63
2019-04-04T08:07:00.011Z,8.95
2019-04-04T08:09:28.794Z,8.63
2019-04-04T08:11:57.517Z,9.65
2019-04-04T08:14:26.341Z,10.75
2019-04-04T08:16:55.065Z,9.90
2019-04-04T08:19:23.895Z,8.80
2019-04-04T08:21:52.628Z,8.33
2019-04-04T08:24:21.385Z,8.63
2019-04-04T08:26:50.117Z,9.03
2019-04-04T08:29:18.960Z,9.80
2019-04-04T08:31:47.693Z,8.50
2019-04-04T08:34:16.533Z,8.83
2019-04-04T08:36:45.268Z,8.55
2019-04-04T08:39:14.132Z,7.53
2019-04-04T08:41:42.900Z,7.85
2019-04-04T08:44:11.679Z,8.58
2019-04-04T08:46:40.478Z,9.18
2019-04-04T08:49:09.472Z,8.05
2019-04-04T08:51:38.208Z,8.10
2019-04-04T08:54:07.044Z,7.60
2019-04-04T08:56:37.112Z,8.48
2019-04-04T08:59:07.054Z,8.53
2019-04-04T09:01:35.865Z,9.40
2019-04-04T09:04:04.961Z,7.25
2019-04-04T09:06:33.749Z,8.63
2019-04-04T09:09:02.556Z,7.60
2019-04-04T09:11:32.806Z,8.88
2019-04-04T09:14:01.613Z,8.85
2019-04-04T09:16:30.476Z,8.93
2019-04-04T09:18:59.170Z,9.70
2019-04-04T09:21:27.929Z,9.80
2019-04-04T09:23:56.734Z,10.23
2019-04-04T09:26:25.588Z,12.20
2019-04-04T09:28:54.340Z,11.97
2019-04-04T09:31:23.116Z,11.55
2019-04-04T09:33:51.928Z,11.57
2019-04-04T09:36:20.753Z,13.60
2019-04-04T09:38:49.498Z,12.35
2019-04-04T09:41:18.558Z,12.03
2019-04-04T09:43:47.291Z,12.65
2019-04-04T09:46:16.053Z,13.03
2019-04-04T09:48:44.790Z,12.53
2019-04-04T09:51:13.569Z,12.43
2019-04-04T09:53:52.997Z,11.73
2019-04-04T09:56:12.829Z,13.20
2019-04-04T09:58:41.565Z,12.23
2019-04-04T10:01:28.518Z,12.85
2019-04-04T10:03:57.028Z,12.20
2019-04-04T10:06:25.790Z,12.43
2019-04-04T10:08:54.525Z,13.03
2019-04-04T10:11:23.311Z,13.28
2019-04-04T10:13:52.072Z,13.22
2019-04-04T10:16:20.836Z,12.00
2019-04-04T10:18:49.650Z,13.32
2019-04-04T10:21:18.489Z,12.88
2019-04-04T10:23:47.242Z,12.77
2019-04-04T10:26:16.061Z,14.53
2019-04-04T10:28:44.801Z,13.48
2019-04-04T10:31:13.574Z,15.23
2019-04-04T10:33:42.534Z,16.48
2019-04-04T10:36:11.414Z,16.12
2019-04-04T10:38:40.176Z,15.03
2019-04-04T10:41:08.921Z,15.35
2019-04-04T10:43:38.120Z,15.98
2019-04-04T10:46:06.932Z,18.33
2019-04-04T10:48:35.692Z,15.93
2019-04-04T10:51:04.436Z,16.23
2019-04-04T10:53:33.233Z,16.82
2019-04-04T10:56:02.022Z,16.25
2019-04-04T10:58:30.791Z,15.80
2019-04-04T11:00:59.527Z,14.58
2019-04-04T11:03:28.292Z,15.48
2019-04-04T11:05:57.037Z,16.63
2019-04-04T11:08:25.995Z,18.50
2019-04-04T11:10:54.814Z,16.52
2019-04-04T11:13:33.292Z,16.97
2019-04-04T11:15:54.049Z,18.23
2019-04-04T11:18:22.821Z,18.73
2019-04-04T11:20:51.597Z,15.75
2019-04-04T11:23:20.417Z,17.85
2019-04-04T11:25:49.163Z,17.97
2019-04-04T11:28:18.005Z,16.48
2019-04-04T11:30:48.794Z,17.65
2019-04-04T11:33:17.601Z,21.93
2019-04-04T11:35:46.372Z,19.07
2019-04-04T11:38:15.109Z,17.82
2019-04-04T11:40:43.873Z,17.10
2019-04-04T11:43:12.615Z,18.50
2019-04-04T11:45:41.390Z,17.15
2019-04-04T11:48:10.192Z,18.20
2019-04-04T11:50:39.937Z,16.30
2019-04-04T11:53:09.013Z,17.30
2019-04-04T11:55:37.837Z,18.80
2019-04-04T11:58:06.589Z,16.97
2019-04-04T12:00:39.952Z,16.60
2019-04-04T12:03:08.784Z,16.07
2019-04-04T12:05:37.553Z,18.63
2019-04-04T12:08:06.356Z,19.95
2019-04-04T12:10:35.199Z,16.80
2019-04-04T12:13:04.025Z,15.72
2019-04-04T12:15:32.792Z,18.00
2019-04-04T12:18:01.531Z,16.30
2019-04-04T12:20:30.296Z,16.57
2019-04-04T12:22:59.136Z,15.83
2019-04-04T12:25:27.884Z,17.32
2019-04-04T12:27:56.651Z,17.65
2019-04-04T12:30:25.392Z,14.45
2019-04-04T12:32:54.225Z,17.25
2019-04-04T12:35:22.974Z,14.07
2019-04-04T12:37:51.810Z,15.80
2019-04-04T12:40:21.433Z,15.90
2019-04-04T12:42:50.548Z,16.87
2019-04-04T12:45:19.288Z,14.80
2019-04-04T12:47:48.049Z,15.68
2019-04-04T12:50:16.877Z,17.87
2019-04-04T12:52:45.653Z,16.67
2019-04-04T12:55:14.494Z,15.48
2019-04-04T12:57:43.381Z,16.23
2019-04-04T13:00:12.549Z,14.78
2019-04-04T13:02:41.369Z,15.17
2019-04-04T13:05:10.841Z,15.08
2019-04-04T13:07:39.579Z,15.65
2019-04-04T13:10:11.879Z,13.60
2019-04-04T13:12:40.966Z,16.17
2019-04-04T13:15:11.377Z,14.45
2019-04-04T13:17:40.113Z,14.03
2019-04-04T13:20:09.426Z,14.78
2019-04-04T13:22:38.316Z,14.45
2019-04-04T13:25:10.339Z,15.50
2019-04-04T13:27:39.137Z,15.03
2019-04-04T13:30:11.866Z,14.13
2019-04-04T13:32:40.604Z,15.48
2019-04-04T13:35:10.068Z,14.87
2019-04-04T13:37:38.896Z,13.58
2019-04-04T13:40:07.857Z,13.68
2019-04-04T13:42:36.597Z,17.77
2019-04-04T13:45:06.926Z,14.43
2019-04-04T13:47:38.111Z,15.85
2019-04-04T13:50:08.457Z,14.47
2019-04-04T13:52:37.256Z,14.33
2019-04-04T13:55:07.327Z,15.38
2019-04-04T13:57:39.029Z,13.62
2019-04-04T14:00:11.680Z,13.08
2019-04-04T14:02:40.417Z,12.03
2019-04-04T14:05:13.799Z,13.65
2019-04-04T14:07:40.148Z,13.72
2019-04-04T14:10:09.088Z,13.88
2019-04-04T14:12:37.827Z,15.68
2019-04-04T14:15:11.388Z,15.05
2019-04-04T14:17:43.331Z,12.45
2019-04-04T14:20:13.383Z,13.72
2019-04-04T14:22:41.830Z,14.00
2019-04-04T14:25:10.706Z,15.25
2019-04-04T14:27:39.448Z,13.88
2019-04-04T14:30:09.509Z,12.13
2019-04-04T14:32:38.441Z,10.05
2019-04-04T14:35:08.281Z,9.35
2019-04-04T14:37:37.018Z,9.15
2019-04-04T14:40:09.257Z,8.75
2019-04-04T14:42:39.129Z,9.53
2019-04-04T14:45:08.146Z,9.05
2019-04-04T14:47:36.958Z,9.10
2019-04-04T14:50:07.666Z,9.45
2019-04-04T14:52:39.244Z,8.18
2019-04-04T14:55:07.197Z,8.80
2019-04-04T14:57:35.958Z,8.38
2019-04-04T15:00:08.249Z,7.83
2019-04-04T15:02:37.010Z,8.75
2019-04-04T15:05:06.508Z,8.13
2019-04-04T15:07:35.328Z,7.12
2019-04-04T15:10:04.254Z,9.93
2019-04-04T15:12:33.001Z,6.67
2019-04-04T15:15:01.729Z,7.90
2019-04-04T15:17:30.481Z,7.70
2019-04-04T15:19:59.236Z,8.90
2019-04-04T15:22:27.990Z,7.33
2019-04-04T15:24:56.724Z,8.08
2019-04-04T15:27:25.477Z,7.37
2019-04-04T15:29:54.277Z,7.90
2019-04-04T15:32:23.102Z,6.92
2019-04-04T15:34:51.825Z,6.97
2019-04-04T15:37:20.581Z,6.05
2019-04-04T15:39:49.316Z,6.90
2019-04-04T15:42:18.150Z,6.70
2019-04-04T15:44:46.937Z,6.92
2019-04-04T15:47:15.682Z,8.15
2019-04-04T15:49:44.441Z,7.28
2019-04-04T15:52:13.265Z,8.35
2019-04-04T15:54:42.025Z,6.75
2019-04-04T15:57:10.750Z,8.78
2019-04-04T15:59:42.943Z,7.57
2019-04-04T16:02:17.546Z,6.70
2019-04-04T16:04:43.585Z,6.72
2019-04-04T16:07:12.482Z,7.03
2019-04-04T16:09:47.058Z,7.72
2019-04-04T16:12:15.769Z,8.05
2019-04-04T16:14:44.594Z,7.78
2019-04-04T16:17:13.387Z,8.63
2019-04-04T16:19:42.152Z,7.28
2019-04-04T16:22:10.876Z,5.92
2019-04-04T16:24:39.604Z,4.55
2019-04-04T16:27:08.361Z,6.70
2019-04-04T16:29:37.085Z,4.97
2019-04-04T16:32:05.851Z,5.72
2019-04-04T16:34:34.585Z,4.55
2019-04-04T16:37:03.346Z,6.28
2019-04-04T16:39:32.077Z,4.35
2019-04-04T16:42:02.450Z,4.58
2019-04-04T16:44:31.211Z,5.33
2019-04-04T16:46:59.969Z,4.42
2019-04-04T16:49:28.783Z,4.00
2019-04-04T16:51:57.541Z,3.87
2019-04-04T16:54:26.289Z,3.30
2019-04-04T16:56:55.031Z,3.45
2019-04-04T16:59:23.785Z,3.33
2019-04-04T17:01:52.521Z,5.70
2019-04-04T17:04:21.351Z,2.35
2019-04-04T17:06:50.096Z,3.45
2019-04-04T17:09:18.935Z,2.85
2019-04-04T17:11:47.657Z,1.70
2019-04-04T17:14:16.420Z,2.45
2019-04-04T17:16:45.329Z,2.10
2019-04-04T17:19:34.849Z,1.93
2019-04-04T17:22:06.836Z,2.67
2019-04-04T17:24:36.944Z,2.15
2019-04-04T17:27:05.697Z,3.05
2019-04-04T17:29:34.453Z,2.58
2019-04-04T17:32:03.276Z,3.33
2019-04-04T17:34:32.030Z,2.98
2019-04-04T17:37:01.439Z,2.75
2019-04-04T17:39:30.397Z,3.08
2019-04-04T17:42:29.582Z,4.10
2019-04-04T17:44:50.398Z,3.33
2019-04-04T17:47:19.586Z,3.62
2019-04-04T17:49:48.389Z,3.02
2019-04-04T17:52:18.809Z,3.85
2019-04-04T17:54:48.064Z,3.60
2019-04-04T17:57:18.218Z,3.45
2019-04-04T17:59:50.961Z,3.62
2019-04-04T18:02:20.512Z,3.90
2019-04-04T18:04:49.316Z,3.62
2019-04-04T18:07:18.234Z,4.30
2019-04-04T18:09:50.703Z,5.62
2019-04-04T18:12:19.497Z,4.10
2019-04-04T18:14:48.284Z,4.57
2019-04-04T18:17:17.021Z,5.17
2019-04-04T18:19:45.773Z,5.22
2019-04-04T18:22:14.561Z,5.50
2019-04-04T18:24:43.321Z,6.03
2019-04-04T18:27:12.315Z,4.85
2019-04-04T18:29:41.069Z,4.75
2019-04-04T18:32:09.900Z,4.83
2019-04-04T18:34:38.624Z,5.67
2019-04-04T18:37:07.397Z,4.30
2019-04-04T18:39:36.929Z,3.98
2019-04-04T18:42:06.219Z,4.55
2019-04-04T18:44:34.925Z,4.60
2019-04-04T18:47:03.960Z,4.17
2019-04-04T18:49:32.673Z,4.33
2019-04-04T18:52:01.489Z,3.92
2019-04-04T18:54:30.217Z,4.05
2019-04-04T18:56:58.976Z,4.22
2019-04-04T18:59:27.821Z,3.70
2019-04-04T19:01:57.466Z,4.47
2019-04-04T19:04:26.419Z,3.52
2019-04-04T19:06:55.284Z,3.87
2019-04-04T19:09:24.271Z,3.52
2019-04-04T19:11:53.112Z,3.75
2019-04-04T19:14:22.251Z,4.10
2019-04-04T19:16:51.185Z,4.08
2019-04-04T19:19:20.220Z,4.22
2019-04-04T19:21:49.150Z,4.10
2019-04-04T19:24:17.973Z,3.90
2019-04-04T19:26:46.819Z,4.10
2019-04-04T19:29:15.941Z,4.37
2019-04-04T19:31:45.086Z,3.65
2019-04-04T19:34:14.073Z,4.10
2019-04-04T19:36:43.094Z,3.95
2019-04-04T19:39:13.785Z,3.42
2019-04-04T19:41:42.850Z,3.75
2019-04-04T19:44:11.788Z,4.10
2019-04-04T19:46:40.510Z,3.70
2019-04-04T19:49:09.353Z,4.10
2019-04-04T19:51:38.097Z,4.10
2019-04-04T19:54:06.861Z,3.90
2019-04-04T19:56:36.885Z,3.50
2019-04-04T19:59:05.622Z,3.77
2019-04-04T20:01:34.349Z,4.15
2019-04-04T20:04:03.302Z,3.95
2019-04-04T20:06:32.263Z,4.28
2019-04-04T20:09:01.017Z,4.42
2019-04-04T20:11:29.759Z,4.83
2019-04-04T20:13:58.527Z,4.70
2019-04-04T20:16:27.279Z,4.97
2019-04-04T20:18:56.004Z,4.40
2019-04-04T20:21:26.344Z,4.70
2019-04-04T20:23:55.105Z,4.83
2019-04-04T20:26:23.937Z,4.75
2019-04-04T20:28:52.666Z,5.15
2019-04-04T20:31:21.505Z,5.22
2019-04-04T20:34:00.934Z,5.90
2019-04-04T20:36:20.704Z,5.12
2019-04-04T20:38:49.473Z,5.42
2019-04-04T20:41:18.229Z,5.58
2019-04-04T20:43:46.961Z,5.35
2019-04-04T20:46:15.739Z,5.78
2019-04-04T20:48:44.525Z,5.90
2019-04-04T20:51:13.277Z,6.70
2019-04-04T20:53:42.009Z,6.95
2019-04-04T20:56:10.817Z,6.62
2019-04-04T20:58:39.553Z,6.08
2019-04-04T21:01:08.393Z,6.45
2019-04-04T21:03:37.128Z,6.42
2019-04-04T21:06:05.893Z,6.87
2019-04-04T21:08:34.753Z,6.87
2019-04-04T21:11:03.505Z,7.05
2019-04-04T21:13:32.328Z,6.90
2019-04-04T21:16:01.070Z,7.47
2019-04-04T21:18:29.893Z,6.92
2019-04-04T21:20:58.627Z,7.47
2019-04-04T21:23:27.377Z,7.67
2019-04-04T21:25:56.114Z,7.22
2019-04-04T21:28:24.876Z,6.80
2019-04-04T21:30:53.601Z,6.65
2019-04-04T21:33:22.362Z,6.60
2019-04-04T21:35:51.101Z,6.87
2019-04-04T21:38:19.857Z,6.67
2019-04-04T21:40:48.588Z,7.00
2019-04-04T21:43:17.354Z,7.53
2019-04-04T21:45:46.086Z,6.85
2019-04-04T21:48:14.837Z,7.85
2019-04-04T21:50:43.639Z,7.40
2019-04-04T21:53:12.422Z,8.23
2019-04-04T21:55:41.145Z,7.67
2019-04-04T21:58:09.914Z,7.92
2019-04-04T22:00:42.273Z,8.10
2019-04-04T22:03:11.025Z,9.00
2019-04-04T22:05:39.925Z,7.95
2019-04-04T22:08:08.662Z,8.50
2019-04-04T22:10:37.492Z,8.90
2019-04-04T22:13:06.289Z,8.55
2019-04-04T22:15:35.096Z,7.72
2019-04-04T22:18:03.857Z,8.48
2019-04-04T22:20:33.723Z,8.33
2019-04-04T22:23:02.549Z,8.67
2019-04-04T22:25:31.372Z,8.95
2019-04-04T22:28:00.097Z,8.70
2019-04-04T22:30:28.851Z,8.55
2019-04-04T22:32:57.577Z,8.95
2019-04-04T22:35:26.422Z,8.63
2019-04-04T22:37:55.216Z,9.20
2019-04-04T22:40:23.980Z,8.77
2019-04-04T22:42:52.713Z,9.18
2019-04-04T22:45:21.537Z,9.03
2019-04-04T22:47:50.264Z,8.88
2019-04-04T22:50:19.107Z,9.88
2019-04-04T22:52:47.832Z,8.85
2019-04-04T22:55:16.598Z,9.25
2019-04-04T22:57:45.329Z,8.58
2019-04-04T23:00:14.784Z,8.60
2019-04-04T23:02:43.601Z,8.88
2019-04-04T23:05:12.692Z,8.60
2019-04-04T23:07:41.412Z,8.77
2019-04-04T23:10:12.045Z,8.48
2019-04-04T23:12:40.865Z,8.98
2019-04-04T23:15:10.816Z,7.97
2019-04-04T23:17:39.544Z,8.95
2019-04-04T23:20:09.873Z,8.28
2019-04-04T23:22:46.952Z,7.92
2019-04-04T23:25:09.014Z,7.97
2019-04-04T23:27:37.814Z,8.33
2019-04-04T23:30:07.328Z,7.85
2019-04-04T23:32:36.116Z,8.10
2019-04-04T23:35:06.651Z,8.07
2019-04-04T23:37:35.485Z,7.50
2019-04-04T23:40:04.613Z,7.28
2019-04-04T23:42:33.368Z,7.60
2019-04-04T23:45:02.109Z,7.85
2019-04-04T23:47:42.046Z,7.33
2019-04-04T23:50:01.238Z,7.53
2019-04-04T23:52:29.997Z,7.53
2019-04-04T23:54:58.729Z,6.87
2019-04-04T23:57:27.501Z,7.17
2019-04-04T23:59:56.304Z,6.72
